sensor_id;sensor_type;location;lat;lon;timestamp;pressure;altitude;pressure_sealevel;temperature;humidity
61384;BME280;63511;49.346;8.798;2023-02-11T00:02:12;102350.38;;;0.83;74.88
61384;BME280;63511;49.346;8.798;2023-02-11T00:04:38;102356.88;;;0.89;74.82
61384;BME280;63511;49.346;8.798;2023-02-11T00:07:05;102343.88;;;1.02;73.69
61384;BME280;63511;49.346;8.798;2023-02-11T00:09:31;102343.25;;;1.16;73.83
61384;BME280;63511;49.346;8.798;2023-02-11T00:11:57;102341.19;;;1.19;73.23
61384;BME280;63511;49.346;8.798;2023-02-11T00:14:24;102346.56;;;1.22;73.57
61384;BME280;63511;49.346;8.798;2023-02-11T00:16:52;102336.06;;;1.12;74.47
61384;BME280;63511;49.346;8.798;2023-02-11T00:19:19;102335.72;;;1.21;74.20
61384;BME280;63511;49.346;8.798;2023-02-11T00:21:45;102343.88;;;1.02;74.77
61384;BME280;63511;49.346;8.798;2023-02-11T00:24:12;102338.09;;;0.72;77.44
61384;BME280;63511;49.346;8.798;2023-02-11T00:26:38;102335.63;;;0.91;77.46
61384;BME280;63511;49.346;8.798;2023-02-11T00:29:05;102331.38;;;1.26;75.44
61384;BME280;63511;49.346;8.798;2023-02-11T00:31:34;102329.81;;;1.57;74.27
61384;BME280;63511;49.346;8.798;2023-02-11T00:34:02;102321.44;;;1.57;74.07
61384;BME280;63511;49.346;8.798;2023-02-11T00:36:29;102316.50;;;1.20;75.84
61384;BME280;63511;49.346;8.798;2023-02-11T00:38:56;102328.22;;;1.58;74.43
61384;BME280;63511;49.346;8.798;2023-02-11T00:41:23;102317.25;;;1.32;75.25
61384;BME280;63511;49.346;8.798;2023-02-11T00:43:50;102318.63;;;1.48;74.15
61384;BME280;63511;49.346;8.798;2023-02-11T00:46:18;102318.50;;;1.72;73.92
61384;BME280;63511;49.346;8.798;2023-02-11T00:48:45;102313.44;;;1.78;73.47
61384;BME280;63511;49.346;8.798;2023-02-11T00:51:13;102318.50;;;1.72;72.85
61384;BME280;63511;49.346;8.798;2023-02-11T00:53:40;102311.66;;;1.77;73.11
61384;BME280;63511;49.346;8.798;2023-02-11T00:56:07;102306.03;;;1.90;72.43
61384;BME280;63511;49.346;8.798;2023-02-11T00:58:33;102306.63;;;1.95;72.55
61384;BME280;63511;49.346;8.798;2023-02-11T01:01:00;102315.09;;;2.02;72.44
61384;BME280;63511;49.346;8.798;2023-02-11T01:03:27;102311.09;;;1.85;73.24
61384;BME280;63511;49.346;8.798;2023-02-11T01:05:54;102307.63;;;1.59;74.61
61384;BME280;63511;49.346;8.798;2023-02-11T01:08:23;102306.44;;;1.62;75.30
61384;BME280;63511;49.346;8.798;2023-02-11T01:10:54;102303.69;;;1.79;73.80
61384;BME280;63511;49.346;8.798;2023-02-11T01:13:21;102303.41;;;1.83;73.31
61384;BME280;63511;49.346;8.798;2023-02-11T01:15:47;102299.69;;;1.74;73.48
61384;BME280;63511;49.346;8.798;2023-02-11T01:18:14;102298.94;;;1.50;75.04
61384;BME280;63511;49.346;8.798;2023-02-11T01:20:40;102300.53;;;1.49;74.87
61384;BME280;63511;49.346;8.798;2023-02-11T01:23:07;102299.00;;;1.44;74.65
61384;BME280;63511;49.346;8.798;2023-02-11T01:25:35;102313.56;;;1.54;74.54
61384;BME280;63511;49.346;8.798;2023-02-11T01:28:01;102313.41;;;1.34;76.84
61384;BME280;63511;49.346;8.798;2023-02-11T01:30:28;102309.72;;;1.19;76.80
61384;BME280;63511;49.346;8.798;2023-02-11T01:32:54;102307.22;;;1.19;77.26
61384;BME280;63511;49.346;8.798;2023-02-11T01:35:21;102306.00;;;1.10;77.51
61384;BME280;63511;49.346;8.798;2023-02-11T01:37:47;102303.22;;;1.14;78.52
61384;BME280;63511;49.346;8.798;2023-02-11T01:40:15;102304.25;;;1.40;77.25
61384;BME280;63511;49.346;8.798;2023-02-11T01:42:43;102302.28;;;1.68;75.33
61384;BME280;63511;49.346;8.798;2023-02-11T01:45:48;102290.63;;;1.75;75.34
61384;BME280;63511;49.346;8.798;2023-02-11T01:48:21;102299.84;;;1.94;74.84
61384;BME280;63511;49.346;8.798;2023-02-11T01:50:50;102304.75;;;1.99;74.26
61384;BME280;63511;49.346;8.798;2023-02-11T01:53:18;102298.75;;;2.04;73.80
61384;BME280;63511;49.346;8.798;2023-02-11T01:56:02;102303.63;;;1.85;75.20
61384;BME280;63511;49.346;8.798;2023-02-11T01:58:50;102299.25;;;1.58;77.06
61384;BME280;63511;49.346;8.798;2023-02-11T02:01:22;102285.31;;;1.35;78.58
61384;BME280;63511;49.346;8.798;2023-02-11T02:03:52;102290.41;;;1.42;77.33
61384;BME280;63511;49.346;8.798;2023-02-11T02:06:24;102269.69;;;1.36;78.81
61384;BME280;63511;49.346;8.798;2023-02-11T02:08:56;102275.19;;;1.46;78.12
61384;BME280;63511;49.346;8.798;2023-02-11T02:11:27;102268.69;;;1.59;77.61
61384;BME280;63511;49.346;8.798;2023-02-11T02:13:55;102266.59;;;1.62;77.42
61384;BME280;63511;49.346;8.798;2023-02-11T02:16:25;102252.94;;;1.97;76.00
61384;BME280;63511;49.346;8.798;2023-02-11T02:19:03;102253.63;;;1.96;75.66
61384;BME280;63511;49.346;8.798;2023-02-11T02:22:05;102245.44;;;1.84;76.33
61384;BME280;63511;49.346;8.798;2023-02-11T02:24:56;102240.66;;;2.24;75.23
61384;BME280;63511;49.346;8.798;2023-02-11T02:27:33;102243.34;;;2.00;74.61
61384;BME280;63511;49.346;8.798;2023-02-11T02:30:44;102236.56;;;2.24;74.24
61384;BME280;63511;49.346;8.798;2023-02-11T02:33:24;102231.19;;;2.34;74.49
61384;BME280;63511;49.346;8.798;2023-02-11T02:36:04;102234.06;;;2.49;73.55
61384;BME280;63511;49.346;8.798;2023-02-11T02:38:36;102224.09;;;1.99;75.61
61384;BME280;63511;49.346;8.798;2023-02-11T02:41:07;102226.69;;;1.93;76.07
61384;BME280;63511;49.346;8.798;2023-02-11T02:43:38;102214.66;;;2.22;75.33
61384;BME280;63511;49.346;8.798;2023-02-11T02:46:14;102213.81;;;2.53;74.29
61384;BME280;63511;49.346;8.798;2023-02-11T02:48:44;102205.56;;;2.47;73.85
61384;BME280;63511;49.346;8.798;2023-02-11T02:54:20;102201.28;;;2.08;76.48
61384;BME280;63511;49.346;8.798;2023-02-11T02:56:53;102197.63;;;2.12;75.43
61384;BME280;63511;49.346;8.798;2023-02-11T02:59:28;102197.78;;;2.13;75.19
61384;BME280;63511;49.346;8.798;2023-02-11T03:02:01;102200.91;;;2.05;75.84
61384;BME280;63511;49.346;8.798;2023-02-11T03:04:37;102206.59;;;2.17;75.13
61384;BME280;63511;49.346;8.798;2023-02-11T03:07:11;102206.97;;;2.20;76.08
61384;BME280;63511;49.346;8.798;2023-02-11T03:09:47;102209.63;;;2.34;75.75
61384;BME280;63511;49.346;8.798;2023-02-11T03:12:15;102212.81;;;2.59;75.08
61384;BME280;63511;49.346;8.798;2023-02-11T03:14:42;102216.69;;;2.44;75.48
61384;BME280;63511;49.346;8.798;2023-02-11T03:17:10;102209.47;;;2.33;76.33
61384;BME280;63511;49.346;8.798;2023-02-11T03:19:40;102211.34;;;2.53;nan
61384;BME280;63511;49.346;8.798;2023-02-11T03:22:12;102207.97;;;2.28;76.45
61384;BME280;63511;49.346;8.798;2023-02-11T03:24:40;102220.53;;;2.22;77.12
61384;BME280;63511;49.346;8.798;2023-02-11T03:27:11;102217.28;;;2.61;75.60
61384;BME280;63511;49.346;8.798;2023-02-11T03:29:41;102211.25;;;2.79;75.02
61384;BME280;63511;49.346;8.798;2023-02-11T03:32:13;102201.44;;;2.80;75.03
61384;BME280;63511;49.346;8.798;2023-02-11T03:34:46;102207.34;;;2.36;76.27
61384;BME280;63511;49.346;8.798;2023-02-11T03:37:19;102220.22;;;2.26;77.25
61384;BME280;63511;49.346;8.798;2023-02-11T03:39:50;102210.16;;;2.32;76.78
61384;BME280;63511;49.346;8.798;2023-02-11T03:42:18;102219.78;;;2.61;75.48
61384;BME280;63511;49.346;8.798;2023-02-11T03:44:49;102212.38;;;2.68;75.43
61384;BME280;63511;49.346;8.798;2023-02-11T03:47:20;102217.88;;;2.66;75.25
61384;BME280;63511;49.346;8.798;2023-02-11T03:49:52;102214.34;;;2.71;75.36
61384;BME280;63511;49.346;8.798;2023-02-11T03:52:21;102197.47;;;2.43;76.70
61384;BME280;63511;49.346;8.798;2023-02-11T03:54:52;102193.41;;;2.18;76.58
61384;BME280;63511;49.346;8.798;2023-02-11T03:57:20;102180.19;;;2.44;75.83
61384;BME280;63511;49.346;8.798;2023-02-11T03:59:52;102186.88;;;2.64;76.06
61384;BME280;63511;49.346;8.798;2023-02-11T04:02:19;102190.00;;;2.75;75.61
61384;BME280;63511;49.346;8.798;2023-02-11T04:04:46;102188.50;;;3.03;74.16
61384;BME280;63511;49.346;8.798;2023-02-11T04:07:14;102188.44;;;2.95;74.51
61384;BME280;63511;49.346;8.798;2023-02-11T04:09:41;102172.25;;;2.99;74.55
61384;BME280;63511;49.346;8.798;2023-02-11T04:12:07;102175.94;;;2.95;74.02
61384;BME280;63511;49.346;8.798;2023-02-11T04:14:34;102175.72;;;3.07;73.98
61384;BME280;63511;49.346;8.798;2023-02-11T04:17:00;102173.66;;;2.97;73.81
61384;BME280;63511;49.346;8.798;2023-02-11T04:19:27;102169.91;;;3.13;73.11
61384;BME280;63511;49.346;8.798;2023-02-11T04:21:54;102177.59;;;3.15;73.38
61384;BME280;63511;49.346;8.798;2023-02-11T04:24:21;102183.97;;;3.13;73.32
61384;BME280;63511;49.346;8.798;2023-02-11T04:26:48;102181.41;;;3.25;73.15
61384;BME280;63511;49.346;8.798;2023-02-11T04:29:15;102174.88;;;3.33;73.15
61384;BME280;63511;49.346;8.798;2023-02-11T04:31:41;102174.81;;;3.46;72.16
61384;BME280;63511;49.346;8.798;2023-02-11T04:34:08;102171.34;;;3.38;72.77
61384;BME280;63511;49.346;8.798;2023-02-11T04:36:34;102173.00;;;3.45;71.92
61384;BME280;63511;49.346;8.798;2023-02-11T04:39:01;102167.88;;;3.50;72.50
61384;BME280;63511;49.346;8.798;2023-02-11T04:41:29;102154.78;;;3.65;71.31
61384;BME280;63511;49.346;8.798;2023-02-11T04:43:55;102150.06;;;3.54;72.16
61384;BME280;63511;49.346;8.798;2023-02-11T04:46:22;102158.19;;;3.66;71.22
61384;BME280;63511;49.346;8.798;2023-02-11T04:48:49;102149.78;;;3.65;70.79
61384;BME280;63511;49.346;8.798;2023-02-11T04:51:15;102137.72;;;3.49;72.84
61384;BME280;63511;49.346;8.798;2023-02-11T04:53:42;102135.19;;;3.22;72.66
61384;BME280;63511;49.346;8.798;2023-02-11T04:56:08;102135.31;;;3.16;73.19
61384;BME280;63511;49.346;8.798;2023-02-11T04:58:36;102126.34;;;3.58;71.83
61384;BME280;63511;49.346;8.798;2023-02-11T05:01:06;102136.59;;;3.66;71.93
61384;BME280;63511;49.346;8.798;2023-02-11T05:03:33;102128.50;;;3.55;72.03
61384;BME280;63511;49.346;8.798;2023-02-11T05:06:00;102141.41;;;3.18;72.18
61384;BME280;63511;49.346;8.798;2023-02-11T05:08:26;102151.31;;;3.58;71.51
61384;BME280;63511;49.346;8.798;2023-02-11T05:10:53;102157.09;;;3.64;70.90
61384;BME280;63511;49.346;8.798;2023-02-11T05:13:20;102157.00;;;3.50;71.50
61384;BME280;63511;49.346;8.798;2023-02-11T05:15:48;102157.72;;;3.75;71.03
61384;BME280;63511;49.346;8.798;2023-02-11T05:18:14;102171.16;;;3.83;70.56
61384;BME280;63511;49.346;8.798;2023-02-11T05:20:41;102176.78;;;3.75;70.95
61384;BME280;63511;49.346;8.798;2023-02-11T05:23:08;102178.78;;;3.77;71.30
61384;BME280;63511;49.346;8.798;2023-02-11T05:25:35;102178.59;;;3.76;71.31
61384;BME280;63511;49.346;8.798;2023-02-11T05:28:02;102180.38;;;3.77;71.19
61384;BME280;63511;49.346;8.798;2023-02-11T05:30:29;102186.28;;;3.77;71.29
61384;BME280;63511;49.346;8.798;2023-02-11T05:32:57;102183.81;;;3.84;70.85
61384;BME280;63511;49.346;8.798;2023-02-11T05:35:24;102185.47;;;3.64;70.63
61384;BME280;63511;49.346;8.798;2023-02-11T05:37:50;102178.84;;;3.38;73.77
61384;BME280;63511;49.346;8.798;2023-02-11T05:40:17;102175.72;;;3.46;72.95
61384;BME280;63511;49.346;8.798;2023-02-11T05:42:43;102173.47;;;3.35;73.03
61384;BME280;63511;49.346;8.798;2023-02-11T05:45:10;102154.78;;;2.99;73.74
61384;BME280;63511;49.346;8.798;2023-02-11T05:47:36;102150.69;;;2.99;75.12
61384;BME280;63511;49.346;8.798;2023-02-11T05:50:05;102141.34;;;3.11;74.85
61384;BME280;63511;49.346;8.798;2023-02-11T05:52:31;102148.81;;;2.91;74.57
61384;BME280;63511;49.346;8.798;2023-02-11T05:54:58;102151.63;;;3.27;73.63
61384;BME280;63511;49.346;8.798;2023-02-11T05:57:24;102152.41;;;3.33;72.38
61384;BME280;63511;49.346;8.798;2023-02-11T05:59:51;102156.38;;;2.98;73.69
61384;BME280;63511;49.346;8.798;2023-02-11T06:02:17;102161.75;;;3.21;73.05
61384;BME280;63511;49.346;8.798;2023-02-11T06:04:44;102167.16;;;2.85;73.78
61384;BME280;63511;49.346;8.798;2023-02-11T06:07:12;102158.00;;;2.98;74.21
61384;BME280;63511;49.346;8.798;2023-02-11T06:09:39;102161.19;;;3.17;73.22
61384;BME280;63511;49.346;8.798;2023-02-11T06:12:06;102160.72;;;3.07;73.00
61384;BME280;63511;49.346;8.798;2023-02-11T06:14:32;102140.47;;;3.11;73.11
61384;BME280;63511;49.346;8.798;2023-02-11T06:16:59;102155.97;;;2.76;74.57
61384;BME280;63511;49.346;8.798;2023-02-11T06:19:26;102147.75;;;3.09;73.35
61384;BME280;63511;49.346;8.798;2023-02-11T06:21:52;102145.78;;;3.26;72.70
61384;BME280;63511;49.346;8.798;2023-02-11T06:24:20;102143.28;;;3.26;72.25
61384;BME280;63511;49.346;8.798;2023-02-11T06:26:47;102142.94;;;3.30;72.09
61384;BME280;63511;49.346;8.798;2023-02-11T06:29:13;102130.53;;;3.18;72.01
61384;BME280;63511;49.346;8.798;2023-02-11T06:31:40;102122.31;;;3.38;71.78
61384;BME280;63511;49.346;8.798;2023-02-11T06:34:07;102143.66;;;3.56;70.97
61384;BME280;63511;49.346;8.798;2023-02-11T06:36:34;102140.00;;;3.67;70.62
61384;BME280;63511;49.346;8.798;2023-02-11T06:39:01;102136.03;;;3.35;71.36
61384;BME280;63511;49.346;8.798;2023-02-11T06:41:30;102150.41;;;3.50;70.55
61384;BME280;63511;49.346;8.798;2023-02-11T06:43:56;102155.22;;;3.75;70.35
61384;BME280;63511;49.346;8.798;2023-02-11T06:46:23;102155.00;;;3.74;70.12
61384;BME280;63511;49.346;8.798;2023-02-11T06:48:49;102162.19;;;3.78;69.80
61384;BME280;63511;49.346;8.798;2023-02-11T06:51:17;102166.31;;;3.77;69.84
61384;BME280;63511;49.346;8.798;2023-02-11T06:53:44;102167.47;;;3.94;68.81
61384;BME280;63511;49.346;8.798;2023-02-11T06:56:13;102171.94;;;3.96;68.90
61384;BME280;63511;49.346;8.798;2023-02-11T06:58:42;102166.31;;;3.77;70.78
61384;BME280;63511;49.346;8.798;2023-02-11T07:01:11;102161.81;;;3.75;69.56
61384;BME280;63511;49.346;8.798;2023-02-11T07:03:40;102167.63;;;3.68;69.71
61384;BME280;63511;49.346;8.798;2023-02-11T07:06:11;102175.28;;;3.63;69.75
61384;BME280;63511;49.346;8.798;2023-02-11T07:08:38;102177.50;;;3.47;70.72
61384;BME280;63511;49.346;8.798;2023-02-11T07:11:08;102168.81;;;3.31;71.95
61384;BME280;63511;49.346;8.798;2023-02-11T07:13:35;102169.06;;;3.20;71.40
61384;BME280;63511;49.346;8.798;2023-02-11T07:16:04;102161.19;;;3.36;70.82
61384;BME280;63511;49.346;8.798;2023-02-11T07:18:31;102169.63;;;2.85;72.89
61384;BME280;63511;49.346;8.798;2023-02-11T07:20:58;102164.41;;;3.16;71.42
61384;BME280;63511;49.346;8.798;2023-02-11T07:23:24;102151.41;;;3.18;71.42
61384;BME280;63511;49.346;8.798;2023-02-11T07:25:51;102171.63;;;3.07;71.75
61384;BME280;63511;49.346;8.798;2023-02-11T07:28:17;102168.09;;;3.12;71.42
61384;BME280;63511;49.346;8.798;2023-02-11T07:30:44;102170.75;;;3.26;71.36
61384;BME280;63511;49.346;8.798;2023-02-11T07:33:12;102168.47;;;3.35;71.13
61384;BME280;63511;49.346;8.798;2023-02-11T07:35:38;102172.91;;;3.30;71.06
61384;BME280;63511;49.346;8.798;2023-02-11T07:38:05;102171.19;;;3.36;70.76
61384;BME280;63511;49.346;8.798;2023-02-11T07:40:31;102168.03;;;3.45;70.18
61384;BME280;63511;49.346;8.798;2023-02-11T07:42:59;102162.53;;;3.47;70.26
61384;BME280;63511;49.346;8.798;2023-02-11T07:45:26;102162.81;;;3.43;70.54
61384;BME280;63511;49.346;8.798;2023-02-11T07:47:52;102162.00;;;3.50;70.25
61384;BME280;63511;49.346;8.798;2023-02-11T07:50:20;102159.28;;;3.48;70.55
61384;BME280;63511;49.346;8.798;2023-02-11T07:52:47;102163.88;;;3.65;70.09
61384;BME280;63511;49.346;8.798;2023-02-11T07:55:13;102162.59;;;3.34;70.96
61384;BME280;63511;49.346;8.798;2023-02-11T07:57:40;102147.13;;;3.44;70.73
61384;BME280;63511;49.346;8.798;2023-02-11T08:00:07;102161.38;;;3.65;70.05
61384;BME280;63511;49.346;8.798;2023-02-11T08:02:34;102148.47;;;3.55;70.19
61384;BME280;63511;49.346;8.798;2023-02-11T08:05:00;102146.00;;;3.35;71.20
61384;BME280;63511;49.346;8.798;2023-02-11T08:07:28;102154.22;;;3.61;70.25
61384;BME280;63511;49.346;8.798;2023-02-11T08:09:55;102157.34;;;3.72;69.60
61384;BME280;63511;49.346;8.798;2023-02-11T08:12:21;102166.03;;;3.96;69.44
61384;BME280;63511;49.346;8.798;2023-02-11T08:14:47;102163.06;;;3.78;69.50
61384;BME280;63511;49.346;8.798;2023-02-11T08:17:14;102158.25;;;3.73;69.44
61384;BME280;63511;49.346;8.798;2023-02-11T08:19:41;102156.53;;;3.86;69.87
61384;BME280;63511;49.346;8.798;2023-02-11T08:22:08;102157.91;;;3.77;70.27
61384;BME280;63511;49.346;8.798;2023-02-11T08:24:36;102157.19;;;3.78;69.89
61384;BME280;63511;49.346;8.798;2023-02-11T08:27:02;102156.38;;;3.92;69.88
61384;BME280;63511;49.346;8.798;2023-02-11T08:29:29;102164.19;;;4.21;68.69
61384;BME280;63511;49.346;8.798;2023-02-11T08:31:55;102157.50;;;4.35;67.93
61384;BME280;63511;49.346;8.798;2023-02-11T08:34:22;102158.84;;;4.74;67.17
61384;BME280;63511;49.346;8.798;2023-02-11T08:36:48;102166.50;;;4.68;67.05
61384;BME280;63511;49.346;8.798;2023-02-11T08:39:16;102153.34;;;5.04;67.40
61384;BME280;63511;49.346;8.798;2023-02-11T08:41:45;102157.59;;;4.70;67.04
61384;BME280;63511;49.346;8.798;2023-02-11T08:44:12;102156.75;;;5.05;67.62
61384;BME280;63511;49.346;8.798;2023-02-11T08:46:39;102151.94;;;5.42;65.66
61384;BME280;63511;49.346;8.798;2023-02-11T08:49:05;102158.00;;;5.30;66.43
61384;BME280;63511;49.346;8.798;2023-02-11T08:51:32;102173.75;;;5.14;66.38
61384;BME280;63511;49.346;8.798;2023-02-11T08:53:59;102171.44;;;5.30;66.72
61384;BME280;63511;49.346;8.798;2023-02-11T08:56:26;102170.34;;;5.35;66.65
61384;BME280;63511;49.346;8.798;2023-02-11T08:58:57;102173.75;;;5.50;65.84
61384;BME280;63511;49.346;8.798;2023-02-11T09:01:26;102163.91;;;5.59;65.49
61384;BME280;63511;49.346;8.798;2023-02-11T09:03:54;102161.78;;;5.47;66.54
61384;BME280;63511;49.346;8.798;2023-02-11T09:06:21;102160.69;;;5.52;66.16
61384;BME280;63511;49.346;8.798;2023-02-11T09:08:50;102162.84;;;5.42;65.40
61384;BME280;63511;49.346;8.798;2023-02-11T09:11:20;102167.88;;;5.42;65.72
61384;BME280;63511;49.346;8.798;2023-02-11T09:13:47;102174.66;;;5.43;65.81
61384;BME280;63511;49.346;8.798;2023-02-11T09:16:18;102175.38;;;5.42;66.09
61384;BME280;63511;49.346;8.798;2023-02-11T09:18:45;102171.44;;;5.37;66.41
61384;BME280;63511;49.346;8.798;2023-02-11T09:21:12;102172.34;;;5.59;65.75
61384;BME280;63511;49.346;8.798;2023-02-11T09:23:39;102172.16;;;5.43;65.96
61384;BME280;63511;49.346;8.798;2023-02-11T09:26:12;102177.34;;;5.59;66.83
61384;BME280;63511;49.346;8.798;2023-02-11T09:28:39;102171.94;;;5.84;64.98
61384;BME280;63511;49.346;8.798;2023-02-11T09:31:06;102176.56;;;6.10;64.67
61384;BME280;63511;49.346;8.798;2023-02-11T09:33:35;102179.03;;;6.17;64.23
61384;BME280;63511;49.346;8.798;2023-02-11T09:36:02;102178.50;;;6.12;64.96
61384;BME280;63511;49.346;8.798;2023-02-11T09:38:29;102182.16;;;6.00;64.75
61384;BME280;63511;49.346;8.798;2023-02-11T09:40:56;102189.03;;;6.24;64.84
61384;BME280;63511;49.346;8.798;2023-02-11T09:43:26;102185.88;;;6.11;64.73
61384;BME280;63511;49.346;8.798;2023-02-11T09:45:56;102183.22;;;6.46;64.09
61384;BME280;63511;49.346;8.798;2023-02-11T09:48:23;102179.94;;;6.61;64.02
61384;BME280;63511;49.346;8.798;2023-02-11T09:50:53;102162.97;;;6.45;64.33
61384;BME280;63511;49.346;8.798;2023-02-11T09:53:24;102165.03;;;6.93;63.14
61384;BME280;63511;49.346;8.798;2023-02-11T09:55:52;102156.72;;;7.01;62.77
61384;BME280;63511;49.346;8.798;2023-02-11T09:58:24;102153.31;;;6.77;62.55
61384;BME280;63511;49.346;8.798;2023-02-11T10:00:52;102152.47;;;7.38;63.85
61384;BME280;63511;49.346;8.798;2023-02-11T10:03:46;102149.69;;;7.28;62.04
61384;BME280;63511;49.346;8.798;2023-02-11T10:06:42;102150.97;;;7.47;62.55
61384;BME280;63511;49.346;8.798;2023-02-11T10:09:25;102156.91;;;7.63;61.33
61384;BME280;63511;49.346;8.798;2023-02-11T10:12:02;102154.38;;;7.86;61.70
61384;BME280;63511;49.346;8.798;2023-02-11T10:14:57;102147.28;;;7.75;60.68
61384;BME280;63511;49.346;8.798;2023-02-11T10:17:37;102157.19;;;7.89;61.67
61384;BME280;63511;49.346;8.798;2023-02-11T10:20:19;102143.22;;;7.84;61.94
61384;BME280;63511;49.346;8.798;2023-02-11T10:22:51;102141.38;;;7.90;61.14
61384;BME280;63511;49.346;8.798;2023-02-11T10:25:21;102131.88;;;8.03;61.62
61384;BME280;63511;49.346;8.798;2023-02-11T10:27:50;102123.94;;;8.07;61.83
61384;BME280;63511;49.346;8.798;2023-02-11T10:30:22;102131.06;;;8.11;61.33
61384;BME280;63511;49.346;8.798;2023-02-11T10:32:56;102127.72;;;8.35;60.01
61384;BME280;63511;49.346;8.798;2023-02-11T10:35:24;102137.66;;;8.18;60.62
61384;BME280;63511;49.346;8.798;2023-02-11T10:37:52;102130.72;;;8.24;61.56
61384;BME280;63511;49.346;8.798;2023-02-11T10:40:21;102134.13;;;8.25;60.20
61384;BME280;63511;49.346;8.798;2023-02-11T10:42:50;102123.97;;;8.47;60.19
61384;BME280;63511;49.346;8.798;2023-02-11T10:45:22;102124.28;;;8.50;60.08
61384;BME280;63511;49.346;8.798;2023-02-11T10:47:50;102126.63;;;8.65;60.18
61384;BME280;63511;49.346;8.798;2023-02-11T10:50:20;102124.72;;;8.46;60.39
61384;BME280;63511;49.346;8.798;2023-02-11T10:52:47;102118.38;;;8.74;60.01
61384;BME280;63511;49.346;8.798;2023-02-11T10:55:16;102133.38;;;8.81;59.64
61384;BME280;63511;49.346;8.798;2023-02-11T10:57:51;102133.88;;;8.86;60.68
61384;BME280;63511;49.346;8.798;2023-02-11T11:00:23;102133.34;;;8.73;59.45
61384;BME280;63511;49.346;8.798;2023-02-11T11:02:54;102132.34;;;8.79;59.81
61384;BME280;63511;49.346;8.798;2023-02-11T11:05:26;102126.00;;;8.59;60.64
61384;BME280;63511;49.346;8.798;2023-02-11T11:07:55;102125.47;;;8.94;59.70
61384;BME280;63511;49.346;8.798;2023-02-11T11:10:35;102126.09;;;9.00;59.32
61384;BME280;63511;49.346;8.798;2023-02-11T11:13:23;102125.41;;;8.85;59.51
61384;BME280;63511;49.346;8.798;2023-02-11T11:16:06;102123.34;;;9.14;59.25
61384;BME280;63511;49.346;8.798;2023-02-11T11:18:33;102127.88;;;9.01;59.03
61384;BME280;63511;49.346;8.798;2023-02-11T11:21:00;102123.56;;;9.00;59.87
61384;BME280;63511;49.346;8.798;2023-02-11T11:23:29;102126.28;;;8.62;60.27
61384;BME280;63511;49.346;8.798;2023-02-11T11:26:08;102132.88;;;8.68;59.79
61384;BME280;63511;49.346;8.798;2023-02-11T11:28:38;102134.69;;;9.02;59.82
61384;BME280;63511;49.346;8.798;2023-02-11T11:31:11;102136.47;;;9.03;59.64
61384;BME280;63511;49.346;8.798;2023-02-11T11:33:41;102136.53;;;9.12;58.50
61384;BME280;63511;49.346;8.798;2023-02-11T11:36:11;102134.56;;;9.42;58.73
61384;BME280;63511;49.346;8.798;2023-02-11T11:38:44;102133.56;;;9.16;59.14
61384;BME280;63511;49.346;8.798;2023-02-11T11:41:21;102127.31;;;9.45;59.21
61384;BME280;63511;49.346;8.798;2023-02-11T11:44:04;102143.97;;;9.27;58.87
61384;BME280;63511;49.346;8.798;2023-02-11T11:46:44;102140.88;;;9.21;58.73
61384;BME280;63511;49.346;8.798;2023-02-11T11:49:20;102132.72;;;9.24;59.22
61384;BME280;63511;49.346;8.798;2023-02-11T11:51:55;102130.34;;;9.25;58.64
61384;BME280;63511;49.346;8.798;2023-02-11T11:54:26;102132.78;;;9.32;59.69
61384;BME280;63511;49.346;8.798;2023-02-11T11:57:00;102130.47;;;9.60;58.50
61384;BME280;63511;49.346;8.798;2023-02-11T11:59:28;102129.19;;;9.30;59.03
61384;BME280;63511;49.346;8.798;2023-02-11T12:02:10;102124.13;;;9.72;58.99
61384;BME280;63511;49.346;8.798;2023-02-11T12:04:57;102121.47;;;9.96;59.43
61384;BME280;63511;49.346;8.798;2023-02-11T12:07:36;102121.53;;;10.31;58.51
61384;BME280;63511;49.346;8.798;2023-02-11T12:10:24;102118.97;;;10.13;57.40
61384;BME280;63511;49.346;8.798;2023-02-11T12:13:05;102123.84;;;10.12;57.25
61384;BME280;63511;49.346;8.798;2023-02-11T12:15:37;102106.81;;;10.18;57.81
61384;BME280;63511;49.346;8.798;2023-02-11T12:18:20;102104.13;;;10.08;58.29
61384;BME280;63511;49.346;8.798;2023-02-11T12:21:11;102107.84;;;10.37;57.62
61384;BME280;63511;49.346;8.798;2023-02-11T12:23:51;102100.41;;;10.56;57.66
61384;BME280;63511;49.346;8.798;2023-02-11T12:26:22;102094.03;;;10.16;57.32
61384;BME280;63511;49.346;8.798;2023-02-11T12:29:02;102102.66;;;10.44;57.90
61384;BME280;63511;49.346;8.798;2023-02-11T12:31:42;102086.38;;;10.77;56.60
61384;BME280;63511;49.346;8.798;2023-02-11T12:34:37;102086.16;;;10.39;58.31
61384;BME280;63511;49.346;8.798;2023-02-11T12:37:14;102082.13;;;10.50;58.67
61384;BME280;63511;49.346;8.798;2023-02-11T12:39:49;102084.53;;;10.40;59.00
61384;BME280;63511;49.346;8.798;2023-02-11T12:42:38;102091.06;;;10.29;58.43
61384;BME280;63511;49.346;8.798;2023-02-11T12:45:39;102092.56;;;10.27;58.93
61384;BME280;63511;49.346;8.798;2023-02-11T12:48:20;102085.09;;;10.03;58.54
61384;BME280;63511;49.346;8.798;2023-02-11T12:50:55;102087.50;;;10.18;58.48
61384;BME280;63511;49.346;8.798;2023-02-11T12:53:37;102088.69;;;10.39;59.06
61384;BME280;63511;49.346;8.798;2023-02-11T12:56:13;102079.16;;;10.37;58.59
61384;BME280;63511;49.346;8.798;2023-02-11T12:58:41;102086.91;;;10.38;57.75
61384;BME280;63511;49.346;8.798;2023-02-11T13:01:15;102082.97;;;10.76;57.52
61384;BME280;63511;49.346;8.798;2023-02-11T13:03:47;102084.78;;;10.60;57.72
61384;BME280;63511;49.346;8.798;2023-02-11T13:06:17;102087.19;;;10.50;58.41
61384;BME280;63511;49.346;8.798;2023-02-11T13:08:47;102078.13;;;10.43;57.24
61384;BME280;63511;49.346;8.798;2023-02-11T13:11:20;102084.06;;;10.61;55.53
61384;BME280;63511;49.346;8.798;2023-02-11T13:13:51;102078.25;;;10.53;57.91
61384;BME280;63511;49.346;8.798;2023-02-11T13:16:29;102069.91;;;10.72;57.90
61384;BME280;63511;49.346;8.798;2023-02-11T13:19:02;102058.63;;;10.59;56.05
61384;BME280;63511;49.346;8.798;2023-02-11T13:21:40;102064.44;;;10.94;56.85